]idnight River — HP7399 — position and weather

sailwx.info

Track history (hours):
 
Tides and Currents Weather Stations Pressure Air Temp Water Temp Dewpoint Dewpoint Depression Visibility Wind Speed Wind Dir Waves Ship Positions

]idnight River

Last reported at 2014-Oct-23 09:24 UTC. Time now 2014-Oct-23 10:13 UTC.
Position N 18°01' W 063°05'.

; draft 3.7 m.

Type: Ship. MMSI: 352319000.

Date/timePositionNaut miles runAvg speedWind from/ knotsBaromVisibWave heightAir tempDewpointWater temp
2014-Oct-23 09:24N 18°01' W 063°05'6 6.8
2014-Oct-23 08:33N 18°05' W 063°09'4 3.4
2014-Oct-23 07:31N 18°05' W 063°05'0 0.0
2014-Oct-23 06:31N 18°05' W 063°05'0 0.0
2014-Oct-23 05:31N 18°05' W 063°05'0 0.0
2014-Oct-23 04:28N 18°05' W 063°05'0 0.0
2014-Oct-23 03:29N 18°05' W 063°05'7 6.7
2014-Oct-23 02:28N 18°00' W 063°11'1110.1
2014-Oct-23 01:26N 17°50' W 063°13'910.1
2014-Oct-23 00:33N 17°42' W 063°15'11 0.6
2014-Oct-22 07:33N 17°48' W 063°06'10 9.5
2014-Oct-22 06:32N 17°57' W 063°08'8 7.8
2014-Oct-22 05:31N 18°05' W 063°08'3 3.1
2014-Oct-22 04:33N 18°05' W 063°05'0 0.0
2014-Oct-22 03:32N 18°05' W 063°05'0 0.0
2014-Oct-22 02:33N 18°05' W 063°05'0 0.0
2014-Oct-22 01:33N 18°05' W 063°05'0 0.0
2014-Oct-22 00:26N 18°05' W 063°05'0 0.0
2014-Oct-21 23:26N 18°05' W 063°05'3 3.0
2014-Oct-21 22:33N 18°05' W 063°08'8 8.0
2014-Oct-21 21:33N 17°57' W 063°08'1010.0
2014-Oct-21 20:31N 17°48' W 063°03'12 0.9
2014-Oct-21 06:30N 17°39' W 063°13'37 0.8
2014-Oct-19 06:14N 18°12' W 063°33'6 9.2
2014-Oct-19 05:33N 18°10' W 063°27'1010.0
2014-Oct-19 04:33N 18°07' W 063°16'11 8.5
2014-Oct-19 03:16N 18°05' W 063°05'0 0.0
2014-Oct-19 02:08N 18°05' W 063°05'0 0.1
2014-Oct-19 01:33N 18°05' W 063°05'0 0.2
2014-Oct-19 00:33N 18°05' W 063°05'0 0.0
2014-Oct-18 23:31N 18°05' W 063°05'0 0.0
2014-Oct-18 22:29N 18°05' W 063°05'0 0.0
2014-Oct-18 21:30N 18°05' W 063°05'0 0.0
2014-Oct-18 20:24N 18°05' W 063°05'0 0.1
2014-Oct-18 19:33N 18°05' W 063°05'0 0.1
2014-Oct-18 18:31N 18°05' W 063°05'0 0.0
2014-Oct-18 17:32N 18°05' W 063°05'5 0.5
2014-Oct-18 08:21N 18°00' W 063°04'7 8.9
2014-Oct-18 07:33N 18°05' W 063°10'5 4.6
2014-Oct-18 06:33N 18°05' W 063°05'0 0.0
2014-Oct-18 05:32N 18°05' W 063°05'0 0.0
2014-Oct-18 04:23N 18°05' W 063°05'0 0.0
2014-Oct-18 03:32N 18°05' W 063°05'0 0.0
2014-Oct-18 02:26N 18°05' W 063°05'0 0.0
2014-Oct-18 01:31N 18°05' W 063°05'0 0.0
2014-Oct-18 00:19N 18°05' W 063°05'0 0.0
2014-Oct-17 23:11N 18°05' W 063°05'0 0.0
2014-Oct-17 22:30N 18°05' W 063°05'0 0.0
2014-Oct-17 21:32N 18°05' W 063°05'0 0.0
2014-Oct-17 20:33N 18°05' W 063°05'0 0.0
2014-Oct-17 19:32N 18°05' W 063°05'0 0.0
2014-Oct-17 18:33N 18°05' W 063°05'0 0.0
2014-Oct-17 17:32N 18°05' W 063°05'0 0.0
2014-Oct-17 16:33N 18°05' W 063°05'0 0.0
2014-Oct-17 15:32N 18°05' W 063°05'0 0.0
2014-Oct-17 14:32N 18°05' W 063°05'0 0.0
2014-Oct-17 13:32N 18°05' W 063°05'0 0.0
2014-Oct-17 12:33N 18°05' W 063°05'0 0.0
2014-Oct-17 11:32N 18°05' W 063°05'0 0.0
2014-Oct-17 10:31N 18°05' W 063°05'0 0.0
2014-Oct-17 09:32N 18°05' W 063°05'0 0.0
2014-Oct-17 08:24N 18°05' W 063°05'0 0.0
2014-Oct-17 07:31N 18°05' W 063°05'0 0.0
2014-Oct-17 06:27N 18°05' W 063°05'0 0.0
2014-Oct-17 05:31N 18°05' W 063°05'0 0.0
2014-Oct-17 04:32N 18°05' W 063°05'0 0.0
2014-Oct-17 03:29N 18°05' W 063°05'0 0.0
2014-Oct-17 02:29N 18°05' W 063°05'0 0.0
2014-Oct-17 01:32N 18°05' W 063°05'0 0.0
2014-Oct-17 00:33N 18°05' W 063°05'0 0.0
2014-Oct-16 23:33N 18°05' W 063°05'0 0.0
2014-Oct-16 22:33N 18°05' W 063°05'0 0.0
2014-Oct-16 21:33N 18°05' W 063°05'0 0.0
2014-Oct-16 20:33N 18°05' W 063°05'0 0.0
2014-Oct-16 19:33N 18°05' W 063°05'0 0.0
2014-Oct-16 18:33N 18°05' W 063°05'0 0.0
2014-Oct-16 17:33N 18°05' W 063°05'5 0.6
2014-Oct-16 09:32N 18°00' W 063°05'6 5.8
2014-Oct-16 08:33N 18°05' W 063°08'3 2.7
2014-Oct-16 07:32N 18°05' W 063°05'0 0.0
2014-Oct-16 06:33N 18°05' W 063°05'0 0.0
2014-Oct-16 05:32N 18°05' W 063°05'0 0.0
2014-Oct-16 04:32N 18°05' W 063°05'0 0.0
2014-Oct-16 03:33N 18°05' W 063°05'0 0.0
2014-Oct-16 02:33N 18°05' W 063°05'0 0.0
2014-Oct-16 01:32N 18°05' W 063°05'0 0.0
2014-Oct-16 00:33N 18°05' W 063°05'0 0.0
2014-Oct-15 23:32N 18°05' W 063°05'0 0.0
2014-Oct-15 22:31N 18°05' W 063°05'0 0.0
2014-Oct-15 21:31N 18°05' W 063°05'3 2.8
2014-Oct-15 20:33N 18°07' W 063°07'  
Track history (hours):
 
Tides and Currents Weather Stations Pressure Air Temp Water Temp Dewpoint Dewpoint Depression Visibility Wind Speed Wind Dir Waves Ship Positions

]idnight River

Last reported at 2014-Oct-23 09:24 UTC. Time now 2014-Oct-23 10:13 UTC.
Position N 18°01' W 063°05'.

; draft 3.7 m.

Type: Ship. MMSI: 352319000.

Date/timePositionNaut miles runAvg speedWind from/ knotsBaromVisibWave heightAir tempDewpointWater temp
2014-Oct-23 09:24N 18°01' W 063°05'6 6.8
2014-Oct-23 08:33N 18°05' W 063°09'4 3.4
2014-Oct-23 07:31N 18°05' W 063°05'0 0.0
2014-Oct-23 06:31N 18°05' W 063°05'0 0.0
2014-Oct-23 05:31N 18°05' W 063°05'0 0.0
2014-Oct-23 04:28N 18°05' W 063°05'0 0.0
2014-Oct-23 03:29N 18°05' W 063°05'7 6.7
2014-Oct-23 02:28N 18°00' W 063°11'1110.1
2014-Oct-23 01:26N 17°50' W 063°13'910.1
2014-Oct-23 00:33N 17°42' W 063°15'11 0.6
2014-Oct-22 07:33N 17°48' W 063°06'10 9.5
2014-Oct-22 06:32N 17°57' W 063°08'8 7.8
2014-Oct-22 05:31N 18°05' W 063°08'3 3.1
2014-Oct-22 04:33N 18°05' W 063°05'0 0.0
2014-Oct-22 03:32N 18°05' W 063°05'0 0.0
2014-Oct-22 02:33N 18°05' W 063°05'0 0.0
2014-Oct-22 01:33N 18°05' W 063°05'0 0.0
2014-Oct-22 00:26N 18°05' W 063°05'0 0.0
2014-Oct-21 23:26N 18°05' W 063°05'3 3.0
2014-Oct-21 22:33N 18°05' W 063°08'8 8.0
2014-Oct-21 21:33N 17°57' W 063°08'1010.0
2014-Oct-21 20:31N 17°48' W 063°03'12 0.9
2014-Oct-21 06:30N 17°39' W 063°13'37 0.8
2014-Oct-19 06:14N 18°12' W 063°33'6 9.2
2014-Oct-19 05:33N 18°10' W 063°27'1010.0
2014-Oct-19 04:33N 18°07' W 063°16'11 8.5
2014-Oct-19 03:16N 18°05' W 063°05'0 0.0
2014-Oct-19 02:08N 18°05' W 063°05'0 0.1
2014-Oct-19 01:33N 18°05' W 063°05'0 0.2
2014-Oct-19 00:33N 18°05' W 063°05'0 0.0
2014-Oct-18 23:31N 18°05' W 063°05'0 0.0
2014-Oct-18 22:29N 18°05' W 063°05'0 0.0
2014-Oct-18 21:30N 18°05' W 063°05'0 0.0
2014-Oct-18 20:24N 18°05' W 063°05'0 0.1
2014-Oct-18 19:33N 18°05' W 063°05'0 0.1
2014-Oct-18 18:31N 18°05' W 063°05'0 0.0
2014-Oct-18 17:32N 18°05' W 063°05'5 0.5
2014-Oct-18 08:21N 18°00' W 063°04'7 8.9
2014-Oct-18 07:33N 18°05' W 063°10'5 4.6
2014-Oct-18 06:33N 18°05' W 063°05'0 0.0
2014-Oct-18 05:32N 18°05' W 063°05'0 0.0
2014-Oct-18 04:23N 18°05' W 063°05'0 0.0
2014-Oct-18 03:32N 18°05' W 063°05'0 0.0
2014-Oct-18 02:26N 18°05' W 063°05'0 0.0
2014-Oct-18 01:31N 18°05' W 063°05'0 0.0
2014-Oct-18 00:19N 18°05' W 063°05'0 0.0
2014-Oct-17 23:11N 18°05' W 063°05'0 0.0
2014-Oct-17 22:30N 18°05' W 063°05'0 0.0
2014-Oct-17 21:32N 18°05' W 063°05'0 0.0
2014-Oct-17 20:33N 18°05' W 063°05'0 0.0
2014-Oct-17 19:32N 18°05' W 063°05'0 0.0
2014-Oct-17 18:33N 18°05' W 063°05'0 0.0
2014-Oct-17 17:32N 18°05' W 063°05'0 0.0
2014-Oct-17 16:33N 18°05' W 063°05'0 0.0
2014-Oct-17 15:32N 18°05' W 063°05'0 0.0
2014-Oct-17 14:32N 18°05' W 063°05'0 0.0
2014-Oct-17 13:32N 18°05' W 063°05'0 0.0
2014-Oct-17 12:33N 18°05' W 063°05'0 0.0
2014-Oct-17 11:32N 18°05' W 063°05'0 0.0
2014-Oct-17 10:31N 18°05' W 063°05'0 0.0
2014-Oct-17 09:32N 18°05' W 063°05'0 0.0
2014-Oct-17 08:24N 18°05' W 063°05'0 0.0
2014-Oct-17 07:31N 18°05' W 063°05'0 0.0
2014-Oct-17 06:27N 18°05' W 063°05'0 0.0
2014-Oct-17 05:31N 18°05' W 063°05'0 0.0
2014-Oct-17 04:32N 18°05' W 063°05'0 0.0
2014-Oct-17 03:29N 18°05' W 063°05'0 0.0
2014-Oct-17 02:29N 18°05' W 063°05'0 0.0
2014-Oct-17 01:32N 18°05' W 063°05'0 0.0
2014-Oct-17 00:33N 18°05' W 063°05'0 0.0
2014-Oct-16 23:33N 18°05' W 063°05'0 0.0
2014-Oct-16 22:33N 18°05' W 063°05'0 0.0
2014-Oct-16 21:33N 18°05' W 063°05'0 0.0
2014-Oct-16 20:33N 18°05' W 063°05'0 0.0
2014-Oct-16 19:33N 18°05' W 063°05'0 0.0
2014-Oct-16 18:33N 18°05' W 063°05'0 0.0
2014-Oct-16 17:33N 18°05' W 063°05'5 0.6
2014-Oct-16 09:32N 18°00' W 063°05'6 5.8
2014-Oct-16 08:33N 18°05' W 063°08'3 2.7
2014-Oct-16 07:32N 18°05' W 063°05'0 0.0
2014-Oct-16 06:33N 18°05' W 063°05'0 0.0
2014-Oct-16 05:32N 18°05' W 063°05'0 0.0
2014-Oct-16 04:32N 18°05' W 063°05'0 0.0
2014-Oct-16 03:33N 18°05' W 063°05'0 0.0
2014-Oct-16 02:33N 18°05' W 063°05'0 0.0
2014-Oct-16 01:32N 18°05' W 063°05'0 0.0
2014-Oct-16 00:33N 18°05' W 063°05'0 0.0
2014-Oct-15 23:32N 18°05' W 063°05'0 0.0
2014-Oct-15 22:31N 18°05' W 063°05'0 0.0
2014-Oct-15 21:31N 18°05' W 063°05'3 2.8
2014-Oct-15 20:33N 18°07' W 063°07'  

Dump ship's entire track history